Time;durP1;ratioP1;P1;durP2;ratioP2;P2;SDS_P1;SDS_P2;PMS_P1;PMS_P2;Temp;Humidity;BMP_temperature;BMP_pressure;BME280_temperature;BME280_humidity;BME280_pressure;Samples;Min_cycle;Max_cycle;Signal;HPM_P1;HPM_P2
2024/03/15 00:00:50;;;;;;;4.35;2.55;;;;;;;11.34;100.00;101270.34;10352639;28;20050;-75
2024/03/15 00:06:13;;;;;;;4.13;1.88;;;;;;;11.57;100.00;101263.75;10351655;28;20069;-74
2024/03/15 00:11:36;;;;;;;7.28;1.85;;;;;;;11.38;100.00;101259.84;10350652;28;20244;-75
2024/03/15 00:16:58;;;;;;;2.25;1.70;;;;;;;11.22;100.00;101259.50;10378603;28;20053;-75
2024/03/15 00:22:23;;;;;;;6.30;1.88;;;;;;;11.01;100.00;101257.31;10351808;28;20064;-75
2024/03/15 00:27:45;;;;;;;2.95;1.70;;;;;;;11.04;100.00;101260.88;10335937;28;20060;-75
2024/03/15 00:33:08;;;;;;;4.63;2.72;;;;;;;10.97;100.00;101253.69;10347806;28;20050;-75
2024/03/15 00:38:31;;;;;;;5.03;2.58;;;;;;;11.09;100.00;101253.94;10342077;28;20134;-75
2024/03/15 00:43:53;;;;;;;6.90;2.42;;;;;;;11.04;100.00;101252.06;10352420;28;20701;-75
2024/03/15 00:49:16;;;;;;;5.07;1.88;;;;;;;11.01;100.00;101245.00;10333818;28;20077;-75
2024/03/15 00:54:39;;;;;;;7.55;4.55;;;;;;;11.04;100.00;101242.41;10352211;28;20068;-75
2024/03/15 01:00:02;;;;;;;15.77;14.02;;;;;;;11.00;100.00;101239.66;10415262;28;20501;-75
2024/03/15 01:05:25;;;;;;;4.28;2.70;;;;;;;11.00;100.00;101240.56;10423767;28;20581;-76
2024/03/15 01:10:47;;;;;;;3.08;1.90;;;;;;;11.01;100.00;101239.72;10419611;28;20045;-75
2024/03/15 01:16:11;;;;;;;3.38;1.80;;;;;;;11.03;100.00;101242.34;10419985;28;20562;-75
2024/03/15 01:21:34;;;;;;;2.80;1.40;;;;;;;11.05;100.00;101241.53;10423496;28;20060;-75
2024/03/15 01:26:57;;;;;;;6.75;1.65;;;;;;;11.11;100.00;101240.78;10426515;28;20067;-75
2024/03/15 01:32:19;;;;;;;4.18;1.67;;;;;;;11.24;100.00;101234.00;10426387;28;20037;-75
2024/03/15 01:37:42;;;;;;;4.95;1.75;;;;;;;11.09;100.00;101230.16;10446561;28;20049;-75
2024/03/15 01:43:05;;;;;;;3.85;2.20;;;;;;;10.90;100.00;101232.38;10441152;28;20126;-75
2024/03/15 01:48:27;;;;;;;4.57;2.33;;;;;;;10.83;100.00;101226.06;10413623;28;20571;-75
2024/03/15 01:53:50;;;;;;;5.75;2.10;;;;;;;10.84;100.00;101233.16;10424064;28;20033;-75
2024/03/15 01:59:13;;;;;;;7.40;4.15;;;;;;;10.74;100.00;101231.19;10426776;28;20700;-75
2024/03/15 02:04:35;;;;;;;5.75;4.97;;;;;;;10.52;100.00;101226.25;10440625;28;20111;-75
2024/03/15 02:09:58;;;;;;;6.43;5.20;;;;;;;10.46;100.00;101236.66;10426643;28;20497;-75
2024/03/15 02:15:21;;;;;;;9.10;5.97;;;;;;;10.51;100.00;101238.56;10398741;28;20049;-76
2024/03/15 02:20:44;;;;;;;5.95;2.60;;;;;;;10.83;100.00;101247.19;10398009;28;20149;-75
2024/03/15 02:26:07;;;;;;;4.70;3.00;;;;;;;10.69;100.00;101236.38;10412061;28;20061;-75
2024/03/15 02:31:29;;;;;;;5.78;2.83;;;;;;;10.71;100.00;101244.28;10449113;28;20400;-76
2024/03/15 02:36:52;;;;;;;9.88;4.57;;;;;;;10.97;100.00;101243.13;10416660;28;20110;-75
2024/03/15 02:42:14;;;;;;;7.95;3.53;;;;;;;10.88;100.00;101247.31;10451103;28;20132;-75
2024/03/15 02:47:38;;;;;;;6.82;3.75;;;;;;;10.48;100.00;101253.44;10396523;28;20060;-75
2024/03/15 02:53:01;;;;;;;7.65;3.10;;;;;;;10.37;100.00;101256.69;10416544;28;20044;-75
2024/03/15 02:58:24;;;;;;;4.68;2.53;;;;;;;10.37;100.00;101261.97;10432189;28;20095;-76
2024/03/15 03:03:46;;;;;;;7.95;5.53;;;;;;;10.55;100.00;101265.94;10419880;28;20063;-76
2024/03/15 03:09:09;;;;;;;13.30;11.98;;;;;;;10.82;100.00;101263.03;10451472;28;20052;-75
2024/03/15 03:14:33;;;;;;;31.50;28.98;;;;;;;11.16;100.00;101268.19;10452336;28;20052;-77
2024/03/15 03:19:56;;;;;;;10.68;8.20;;;;;;;11.12;100.00;101259.31;10418128;28;20052;-75
2024/03/15 03:25:19;;;;;;;13.05;10.80;;;;;;;10.99;100.00;101265.19;10411709;28;20053;-76
2024/03/15 03:30:42;;;;;;;10.07;6.97;;;;;;;11.08;100.00;101262.75;10393575;28;20080;-75
2024/03/15 03:36:05;;;;;;;7.60;3.50;;;;;;;11.31;100.00;101267.63;10422517;28;20049;-75
2024/03/15 03:41:27;;;;;;;10.18;4.15;;;;;;;11.58;100.00;101281.41;10382267;28;20053;-75
2024/03/15 03:46:50;;;;;;;5.43;3.60;;;;;;;11.69;100.00;101287.78;10423972;28;20323;-75
2024/03/15 03:52:13;;;;;;;7.78;4.13;;;;;;;11.66;100.00;101279.81;10419261;28;20055;-76
2024/03/15 03:57:35;;;;;;;5.85;3.70;;;;;;;11.60;100.00;101292.91;10436894;28;20069;-74
2024/03/15 04:02:58;;;;;;;8.68;5.68;;;;;;;11.63;100.00;101295.59;10422045;28;20061;-76
2024/03/15 04:08:21;;;;;;;7.30;2.92;;;;;;;11.78;100.00;101297.69;10421501;28;20044;-75
2024/03/15 04:13:44;;;;;;;10.68;8.70;;;;;;;12.03;100.00;101301.66;10409966;28;20041;-75
2024/03/15 04:19:08;;;;;;;12.32;8.18;;;;;;;12.10;100.00;101303.56;10413971;28;20136;-75
2024/03/15 04:24:34;;;;;;;22.10;16.13;;;;;;;12.12;100.00;101302.75;10417110;28;20045;-75
2024/03/15 04:29:57;;;;;;;11.45;9.75;;;;;;;12.11;100.00;101315.94;10434103;28;20069;-75
2024/03/15 04:35:19;;;;;;;16.38;9.27;;;;;;;12.04;100.00;101312.28;10407066;28;20397;-76
2024/03/15 04:40:42;;;;;;;9.23;4.80;;;;;;;11.94;100.00;101313.91;10420395;28;20056;-75
2024/03/15 04:46:07;;;;;;;6.03;2.45;;;;;;;11.91;100.00;101324.41;10440593;28;20052;-76
2024/03/15 04:51:30;;;;;;;7.80;3.35;;;;;;;11.96;100.00;101321.84;10410984;28;20477;-76
2024/03/15 04:56:52;;;;;;;4.10;3.38;;;;;;;12.43;100.00;101330.63;10409739;28;20103;-76
2024/03/15 05:02:15;;;;;;;5.68;3.30;;;;;;;12.57;100.00;101330.88;10417627;28;20057;-75
2024/03/15 05:07:38;;;;;;;7.85;3.83;;;;;;;13.91;100.00;101315.97;10433738;28;20095;-75
2024/03/15 05:13:00;;;;;;;5.45;3.53;;;;;;;15.80;100.00;101314.72;10406782;28;20053;-75
2024/03/15 05:18:23;;;;;;;8.00;3.47;;;;;;;16.31;100.00;101314.81;10413869;28;20053;-76
2024/03/15 05:23:47;;;;;;;5.50;3.83;;;;;;;17.96;100.00;101314.47;10425797;28;20045;-75
2024/03/15 05:29:09;;;;;;;7.28;2.17;;;;;;;19.40;100.00;101302.53;10433857;28;20052;-77
2024/03/15 05:34:32;;;;;;;4.32;2.05;;;;;;;18.58;100.00;101306.03;10398284;28;20056;-76
2024/03/15 05:39:55;;;;;;;5.10;1.98;;;;;;;18.25;100.00;101305.38;10413050;28;20436;-76
2024/03/15 05:45:20;;;;;;;5.18;1.95;;;;;;;18.91;100.00;101307.50;10420255;28;20071;-77
2024/03/15 05:50:43;;;;;;;3.60;2.13;;;;;;;20.77;100.00;101309.50;10403579;28;20078;-77
2024/03/15 05:56:06;;;;;;;3.78;1.83;;;;;;;22.48;100.00;101310.41;10391245;28;20520;-77
2024/03/15 06:01:28;;;;;;;3.38;1.70;;;;;;;24.11;95.32;101313.94;10421845;28;20448;-76
2024/03/15 06:06:51;;;;;;;5.35;1.67;;;;;;;25.03;82.94;101318.13;10409183;28;20052;-76
2024/03/15 06:12:13;;;;;;;2.97;1.50;;;;;;;22.13;100.00;101319.28;10405260;28;20052;-75
2024/03/15 06:17:36;;;;;;;2.92;1.48;;;;;;;23.84;100.00;101335.44;10420799;28;20053;-76
2024/03/15 06:22:59;;;;;;;2.85;1.80;;;;;;;25.87;80.02;101325.84;10425765;28;20568;-76
2024/03/15 06:28:22;;;;;;;3.35;1.20;;;;;;;26.94;66.78;101331.41;10438145;28;20049;-77
2024/03/15 06:33:45;;;;;;;8.07;4.45;;;;;;;28.23;58.58;101336.34;10424699;28;20049;-77
2024/03/15 06:39:22;;;;;;;4.40;1.80;;;;;;;28.06;58.78;101347.13;10427487;28;20049;-76
2024/03/15 06:44:50;;;;;;;4.93;1.92;;;;;;;27.19;60.53;101342.94;10414176;28;20064;-77
2024/03/15 06:50:30;;;;;;;6.90;2.15;;;;;;;25.26;86.58;101353.34;10433165;28;20041;-75
2024/03/15 06:55:53;;;;;;;4.68;1.80;;;;;;;25.30;80.82;101359.50;10421146;28;20045;-75
2024/03/15 07:01:16;;;;;;;6.00;2.10;;;;;;;25.06;84.47;101360.38;10453262;28;20045;-75
2024/03/15 07:06:39;;;;;;;6.55;3.47;;;;;;;26.66;68.29;101363.28;10421547;28;20053;-75
2024/03/15 07:12:02;;;;;;;4.88;2.22;;;;;;;27.78;53.46;101369.25;10410140;28;20055;-75
2024/03/15 07:17:24;;;;;;;12.23;4.50;;;;;;;25.40;74.53;101372.63;10421491;28;20051;-77
2024/03/15 07:22:47;;;;;;;7.55;3.17;;;;;;;23.64;93.06;101372.88;10436289;28;20065;-74
2024/03/15 07:28:10;;;;;;;6.38;2.42;;;;;;;22.38;100.00;101357.31;10396724;28;20501;-75
2024/03/15 07:33:34;;;;;;;7.93;4.32;;;;;;;23.35;99.84;101372.81;10406791;28;20052;-75
2024/03/15 07:38:56;;;;;;;4.13;1.70;;;;;;;26.54;61.79;101372.81;10396910;28;20049;-77
2024/03/15 07:44:19;;;;;;;4.90;2.17;;;;;;;26.59;65.16;101373.50;10409141;28;20515;-77
2024/03/15 07:49:41;;;;;;;4.07;2.65;;;;;;;31.07;42.63;101369.09;10449846;28;20051;-78
2024/03/15 07:55:05;;;;;;;4.03;1.52;;;;;;;33.61;36.23;101384.25;10406476;28;20041;-77
2024/03/15 08:00:28;;;;;;;3.42;1.50;;;;;;;28.81;44.73;101379.75;10417832;28;20456;-76
2024/03/15 08:05:52;;;;;;;5.43;2.00;;;;;;;25.08;64.50;101380.97;10408966;28;20057;-75
2024/03/15 08:11:15;;;;;;;5.10;1.98;;;;;;;23.13;82.72;101382.38;10406314;28;20069;-76
2024/03/15 08:16:39;;;;;;;10.73;2.40;;;;;;;23.53;78.01;101388.50;10437137;28;20044;-76
2024/03/15 08:22:02;;;;;;;7.20;3.00;;;;;;;24.85;65.39;101395.25;10428112;28;20045;-79
2024/03/15 08:27:27;;;;;;;7.38;3.92;;;;;;;29.04;43.18;101386.72;10405492;28;20048;-76
2024/03/15 08:32:49;;;;;;;7.93;4.38;;;;;;;29.79;39.65;101392.72;10407976;28;20164;-79
2024/03/15 08:38:13;;;;;;;7.18;2.70;;;;;;;25.68;51.98;101396.88;10420790;28;20506;-79
2024/03/15 08:43:36;;;;;;;7.38;3.03;;;;;;;23.53;69.22;101390.31;10421160;28;20731;-79
2024/03/15 08:48:58;;;;;;;4.30;3.22;;;;;;;28.98;45.37;101397.91;10429671;28;20169;-77
2024/03/15 08:54:21;;;;;;;5.38;2.10;;;;;;;27.67;45.45;101396.00;10432422;28;20045;-79
2024/03/15 08:59:44;;;;;;;9.73;6.63;;;;;;;24.81;58.14;101400.81;10418441;28;20057;-79
2024/03/15 09:05:08;;;;;;;9.77;6.97;;;;;;;23.57;68.34;101400.06;10428768;28;20053;-77
2024/03/15 09:10:31;;;;;;;14.68;10.32;;;;;;;23.03;72.00;101393.41;10402997;28;20485;-79
2024/03/15 09:15:55;;;;;;;9.10;5.50;;;;;;;24.36;61.60;101403.16;10458122;28;20048;-78
2024/03/15 09:21:19;;;;;;;8.68;5.43;;;;;;;23.21;69.57;101400.13;10415173;28;20045;-79
2024/03/15 09:26:42;;;;;;;14.68;9.77;;;;;;;22.17;80.91;101396.34;10419595;28;20049;-79
2024/03/15 09:32:05;;;;;;;12.35;9.25;;;;;;;21.34;90.02;101403.34;10414739;28;20444;-78
2024/03/15 09:37:35;;;;;;;9.88;6.80;;;;;;;20.90;94.17;101404.09;10397649;28;20055;-77
2024/03/15 09:42:58;;;;;;;5.95;2.72;;;;;;;23.49;76.69;101385.94;10406213;28;20045;-78
2024/03/15 09:48:20;;;;;;;7.32;2.75;;;;;;;26.43;54.73;101389.50;10428681;28;20114;-77
2024/03/15 09:53:43;;;;;;;5.80;3.00;;;;;;;30.92;40.47;101389.94;10421182;28;20053;-78
2024/03/15 09:59:05;;;;;;;4.93;2.00;;;;;;;33.01;36.64;101383.03;10389668;28;20056;-77
2024/03/15 10:04:28;;;;;;;5.85;1.95;;;;;;;33.85;35.04;101383.53;10426875;28;20072;-78
2024/03/15 10:09:53;;;;;;;4.65;1.90;;;;;;;33.00;35.42;101381.28;10400002;28;20042;-79
2024/03/15 10:15:15;;;;;;;3.60;2.22;;;;;;;33.26;35.84;101376.78;10422601;28;20053;-78
2024/03/15 10:20:38;;;;;;;3.58;2.03;;;;;;;30.29;37.82;101378.16;10439480;28;20416;-79
2024/03/15 10:26:02;;;;;;;3.67;2.38;;;;;;;27.87;42.25;101370.66;10386174;28;20075;-80
2024/03/15 10:31:25;;;;;;;4.38;2.70;;;;;;;27.03;41.55;101368.09;10438350;28;20515;-80
2024/03/15 10:36:49;;;;;;;4.72;2.45;;;;;;;26.20;47.81;101371.44;10440886;28;20053;-76
2024/03/15 10:42:12;;;;;;;6.32;3.10;;;;;;;25.55;50.09;101373.88;10411166;28;20049;-77
2024/03/15 10:47:34;;;;;;;8.13;3.90;;;;;;;23.58;65.17;101364.97;10447525;28;20144;-78
2024/03/15 10:52:57;;;;;;;6.55;2.80;;;;;;;23.96;64.31;101360.31;10452812;28;20047;-77
2024/03/15 10:58:20;;;;;;;8.23;3.78;;;;;;;24.42;64.35;101367.84;10399262;28;20056;-76
2024/03/15 11:03:42;;;;;;;7.22;3.50;;;;;;;24.36;62.86;101371.63;10435966;28;20061;-77
2024/03/15 11:09:14;;;;;;;5.47;4.22;;;;;;;24.25;67.30;101360.31;10424044;28;20098;-77
2024/03/15 11:14:36;;;;;;;10.65;6.72;;;;;;;24.09;62.33;101365.25;10396176;28;20141;-77
2024/03/15 11:20:05;;;;;;;6.03;3.70;;;;;;;23.61;73.09;101362.22;10423962;28;20447;-77
2024/03/15 11:25:32;;;;;;;5.88;3.60;;;;;;;24.65;59.59;101359.91;10396019;28;20047;-76
2024/03/15 11:30:55;;;;;;;3.10;2.50;;;;;;;24.45;62.98;101356.97;10435784;28;20052;-77
2024/03/15 11:36:17;;;;;;;4.60;1.75;;;;;;;24.47;60.81;101361.41;10418900;28;20060;-77
2024/03/15 11:41:40;;;;;;;6.63;2.60;;;;;;;23.92;64.62;101351.41;10422979;28;20056;-77
2024/03/15 11:47:03;;;;;;;5.35;2.30;;;;;;;23.48;67.84;101355.41;10422916;28;20076;-77
2024/03/15 11:52:25;;;;;;;6.13;2.40;;;;;;;23.01;71.30;101348.56;10421700;28;20107;-77
2024/03/15 11:57:48;;;;;;;5.50;1.58;;;;;;;23.91;67.32;101348.75;10435398;28;20045;-78
2024/03/15 12:03:12;;;;;;;5.15;1.73;;;;;;;24.69;61.44;101349.88;10420608;28;20067;-77
2024/03/15 12:08:34;;;;;;;6.28;2.42;;;;;;;24.00;63.09;101337.69;10422922;28;20096;-77
2024/03/15 12:13:57;;;;;;;5.53;2.40;;;;;;;22.66;75.00;101333.28;10409181;28;20053;-77
2024/03/15 12:19:20;;;;;;;2.50;1.30;;;;;;;22.39;78.26;101336.63;10394225;28;20140;-78
2024/03/15 12:24:43;;;;;;;7.28;2.97;;;;;;;22.69;78.06;101335.00;10421504;28;20523;-77
2024/03/15 12:30:06;;;;;;;5.57;2.10;;;;;;;23.13;76.66;101339.28;10387954;28;20489;-77
2024/03/15 12:35:28;;;;;;;6.78;3.13;;;;;;;23.41;73.84;101325.00;10422011;28;20114;-77
2024/03/15 12:40:52;;;;;;;6.38;1.80;;;;;;;22.96;77.68;101335.22;10435061;28;20774;-77
2024/03/15 12:46:14;;;;;;;4.65;1.60;;;;;;;22.30;81.46;101336.88;10421758;28;20648;-77
2024/03/15 12:51:36;;;;;;;3.55;1.65;;;;;;;22.00;86.72;101339.31;10411846;28;20056;-77
2024/03/15 12:56:59;;;;;;;5.45;2.00;;;;;;;21.92;83.85;101335.91;10442307;28;20044;-76
2024/03/15 13:02:22;;;;;;;5.05;2.53;;;;;;;21.32;88.16;101338.94;10418222;28;20048;-77
2024/03/15 13:07:44;;;;;;;7.75;2.92;;;;;;;20.72;95.91;101337.31;10419182;28;20049;-79
2024/03/15 13:13:07;;;;;;;5.60;3.08;;;;;;;20.46;99.33;101338.63;10434073;28;20143;-77
2024/03/15 13:18:30;;;;;;;3.53;1.65;;;;;;;20.62;96.79;101339.25;10429445;28;20049;-80
2024/03/15 13:23:54;;;;;;;4.80;2.45;;;;;;;20.53;96.86;101345.69;10416248;28;20122;-79
2024/03/15 13:29:16;;;;;;;4.80;2.03;;;;;;;20.59;96.38;101352.75;10427181;28;20051;-79
2024/03/15 13:34:39;;;;;;;5.35;1.90;;;;;;;20.60;97.17;101346.47;10417194;28;20048;-78
2024/03/15 13:40:08;;;;;;;3.58;2.10;;;;;;;20.76;96.65;101330.97;10396261;28;20045;-78
2024/03/15 13:45:31;;;;;;;4.30;2.67;;;;;;;20.44;97.74;101334.19;10443147;28;20049;-77
2024/03/15 13:50:54;;;;;;;9.73;5.65;;;;;;;20.14;100.00;101323.00;10378107;28;20072;-79
2024/03/15 13:56:16;;;;;;;2.97;1.95;;;;;;;20.07;100.00;101317.75;10426536;28;20436;-79
2024/03/15 14:01:44;;;;;;;4.28;1.42;;;;;;;19.93;100.00;101327.78;10408236;28;20049;-78
2024/03/15 14:07:06;;;;;;;3.47;1.90;;;;;;;19.73;100.00;101320.91;10412787;28;20049;-78
2024/03/15 14:12:30;;;;;;;5.35;3.38;;;;;;;19.77;100.00;101319.94;10417522;28;20128;-76
2024/03/15 14:17:54;;;;;;;5.50;3.47;;;;;;;19.54;100.00;101319.34;10394397;28;20057;-76
2024/03/15 14:23:17;;;;;;;4.82;3.58;;;;;;;19.16;100.00;101321.56;10404215;28;20045;-78
2024/03/15 14:28:40;;;;;;;11.55;9.95;;;;;;;18.86;100.00;101318.28;10426687;28;20049;-79
2024/03/15 14:34:03;;;;;;;12.40;9.32;;;;;;;18.73;100.00;101321.06;10403747;28;20051;-80
2024/03/15 14:39:26;;;;;;;9.40;7.22;;;;;;;18.82;100.00;101326.34;10405951;28;20596;-79
2024/03/15 14:44:49;;;;;;;5.03;3.03;;;;;;;19.04;100.00;101326.13;10421173;28;20053;-77
2024/03/15 14:50:12;;;;;;;4.60;1.50;;;;;;;18.87;100.00;101330.75;10404074;28;20045;-77
2024/03/15 14:55:35;;;;;;;7.07;4.22;;;;;;;18.67;100.00;101324.69;10405072;28;20132;-75
2024/03/15 15:00:57;;;;;;;3.10;1.80;;;;;;;18.59;100.00;101324.75;10370446;28;20601;-78
2024/03/15 15:06:20;;;;;;;6.72;2.97;;;;;;;18.36;100.00;101329.38;10407351;28;20061;-79
2024/03/15 15:11:43;;;;;;;4.60;1.88;;;;;;;18.20;100.00;101331.25;10426977;28;20052;-78
2024/03/15 15:17:06;;;;;;;4.47;2.08;;;;;;;17.93;100.00;101340.31;10394895;28;20052;-78
2024/03/15 15:22:30;;;;;;;12.00;4.63;;;;;;;17.73;100.00;101343.97;10406693;28;20461;-79
2024/03/15 15:27:52;;;;;;;7.93;2.40;;;;;;;17.53;100.00;101344.91;10425019;28;20143;-77
2024/03/15 15:33:15;;;;;;;2.67;1.90;;;;;;;17.37;100.00;101337.84;10449920;28;20072;-77
2024/03/15 15:38:39;;;;;;;5.03;3.17;;;;;;;17.22;100.00;101347.66;10422316;28;20168;-77
2024/03/15 15:44:02;;;;;;;7.93;4.30;;;;;;;17.16;100.00;101359.25;10400745;28;20096;-77
2024/03/15 15:49:26;;;;;;;73.30;34.47;;;;;;;16.96;100.00;101355.72;10400825;28;20050;-77
2024/03/15 15:54:49;;;;;;;63.67;28.05;;;;;;;16.76;100.00;101363.72;10426096;28;20080;-79
2024/03/15 16:00:14;;;;;;;40.97;22.02;;;;;;;16.64;100.00;101371.72;10422077;28;20056;-78
2024/03/15 16:05:37;;;;;;;32.53;18.38;;;;;;;16.47;100.00;101371.69;10426656;28;20660;-78
2024/03/15 16:11:00;;;;;;;42.75;25.23;;;;;;;16.17;100.00;101367.19;10410202;28;20048;-79
2024/03/15 16:16:22;;;;;;;25.20;12.80;;;;;;;15.97;100.00;101368.91;10419332;28;20244;-79
2024/03/15 16:21:45;;;;;;;27.80;16.42;;;;;;;15.85;100.00;101374.19;10406910;28;20500;-80
2024/03/15 16:27:07;;;;;;;13.55;8.52;;;;;;;15.80;100.00;101371.50;10420284;28;20136;-80
2024/03/15 16:32:30;;;;;;;53.47;32.00;;;;;;;15.67;100.00;101379.44;10421425;28;20495;-79
2024/03/15 16:37:53;;;;;;;31.95;20.83;;;;;;;15.55;100.00;101377.63;10408123;28;20045;-79
2024/03/15 16:43:16;;;;;;;23.70;17.30;;;;;;;15.33;100.00;101381.88;10408845;28;20409;-79
2024/03/15 16:48:40;;;;;;;12.75;6.93;;;;;;;15.24;100.00;101375.59;10409805;28;20053;-79
2024/03/15 16:54:04;;;;;;;6.20;4.00;;;;;;;15.08;100.00;101382.59;10395059;28;20405;-82
2024/03/15 16:59:27;;;;;;;27.02;22.98;;;;;;;14.96;100.00;101380.75;10407516;28;20103;-78
2024/03/15 17:04:50;;;;;;;15.15;12.32;;;;;;;14.64;100.00;101383.13;10421738;28;20061;-78
2024/03/15 17:10:13;;;;;;;16.77;12.95;;;;;;;14.56;100.00;101391.91;10420951;28;20048;-78
2024/03/15 17:15:38;;;;;;;35.58;32.28;;;;;;;14.41;100.00;101386.44;10448747;28;20041;-81
2024/03/15 17:21:02;;;;;;;12.00;7.60;;;;;;;14.29;100.00;101401.34;10427317;28;20057;-79
2024/03/15 17:26:24;;;;;;;7.82;6.63;;;;;;;14.02;100.00;101411.66;10394804;28;20058;-81
2024/03/15 17:31:47;;;;;;;27.75;24.60;;;;;;;13.96;100.00;101425.75;10408415;28;20045;-79
2024/03/15 17:37:10;;;;;;;75.22;60.05;;;;;;;14.10;100.00;101430.34;10382141;28;20057;-80
2024/03/15 17:42:33;;;;;;;57.35;46.60;;;;;;;14.05;100.00;101438.22;10380687;28;20057;-79
2024/03/15 17:47:55;;;;;;;32.85;26.70;;;;;;;13.93;100.00;101443.38;10389997;28;20128;-81
2024/03/15 17:53:18;;;;;;;86.70;71.22;;;;;;;13.83;100.00;101450.34;10448266;28;20049;-80
2024/03/15 17:58:41;;;;;;;41.67;37.75;;;;;;;13.76;100.00;101447.59;10421146;28;20057;-79
2024/03/15 18:04:04;;;;;;;71.70;64.60;;;;;;;13.52;100.00;101448.16;10427467;28;20055;-79
2024/03/15 18:09:27;;;;;;;36.22;32.70;;;;;;;13.54;100.00;101460.56;10441991;28;20045;-80
2024/03/15 18:14:49;;;;;;;69.72;62.58;;;;;;;13.30;100.00;101468.16;10391346;28;20052;-78
2024/03/15 18:20:13;;;;;;;32.97;29.88;;;;;;;13.27;100.00;101475.13;10455526;28;20045;-78
2024/03/15 18:25:35;;;;;;;18.40;16.25;;;;;;;13.15;100.00;101473.19;10427696;28;20492;-78
2024/03/15 18:30:59;;;;;;;16.00;14.32;;;;;;;13.20;100.00;101475.91;10438112;28;20053;-79
2024/03/15 18:36:25;;;;;;;28.23;25.38;;;;;;;13.29;100.00;101482.28;10455391;28;20131;-79
2024/03/15 18:41:47;;;;;;;39.17;34.58;;;;;;;13.20;100.00;101491.81;10441750;28;20060;-78
2024/03/15 18:47:10;;;;;;;10.48;9.38;;;;;;;12.92;100.00;101499.28;10440215;28;20049;-78
2024/03/15 18:52:33;;;;;;;11.55;6.22;;;;;;;12.76;100.00;101506.06;10427042;28;20052;-78
2024/03/15 18:57:59;;;;;;;9.35;7.20;;;;;;;12.59;100.00;101509.25;10440557;28;20049;-79
2024/03/15 19:03:22;;;;;;;8.82;7.45;;;;;;;12.84;100.00;101510.59;10447063;28;20049;-79
2024/03/15 19:08:48;;;;;;;16.10;14.20;;;;;;;13.10;100.00;101518.16;10425548;28;20045;-79
2024/03/15 19:14:11;;;;;;;20.63;18.58;;;;;;;13.06;100.00;101518.94;10452998;28;20049;-78
2024/03/15 19:19:33;;;;;;;10.10;7.03;;;;;;;12.68;100.00;101517.34;10409853;28;20045;-78
2024/03/15 19:24:56;;;;;;;9.70;5.32;;;;;;;12.56;100.00;101520.66;10423937;28;20056;-79
2024/03/15 19:30:19;;;;;;;13.23;9.38;;;;;;;12.48;100.00;101514.31;10410471;28;20485;-78
2024/03/15 19:35:43;;;;;;;11.80;8.48;;;;;;;12.24;100.00;101513.84;10425365;28;20049;-78
2024/03/15 19:41:10;;;;;;;20.60;17.42;;;;;;;12.14;100.00;101509.22;10423032;28;20099;-78
2024/03/15 19:46:33;;;;;;;14.15;12.60;;;;;;;12.20;100.00;101517.28;10393245;28;20397;-79
2024/03/15 19:51:56;;;;;;;14.80;13.20;;;;;;;12.33;100.00;101517.56;10417023;28;20061;-78
2024/03/15 19:57:19;;;;;;;17.63;14.35;;;;;;;12.50;100.00;101522.31;10382683;28;20046;-78
2024/03/15 20:02:42;;;;;;;17.42;15.70;;;;;;;12.52;100.00;101521.47;10393304;28;20095;-78
2024/03/15 20:08:05;;;;;;;12.05;10.15;;;;;;;12.30;100.00;101512.22;10423424;28;20056;-78
2024/03/15 20:13:28;;;;;;;7.65;6.95;;;;;;;12.40;100.00;101513.31;10436341;28;20053;-78
2024/03/15 20:18:51;;;;;;;20.20;18.42;;;;;;;12.24;100.00;101511.19;10410216;28;20044;-78
2024/03/15 20:24:14;;;;;;;28.02;25.02;;;;;;;12.34;100.00;101515.78;10421588;28;20076;-78
2024/03/15 20:29:38;;;;;;;18.88;14.13;;;;;;;12.32;100.00;101512.25;10436152;28;20037;-78
2024/03/15 20:35:01;;;;;;;15.48;13.30;;;;;;;12.32;100.00;101512.25;10420718;28;20110;-78
2024/03/15 20:40:26;;;;;;;28.20;25.38;;;;;;;12.12;100.00;101503.88;10435195;28;20052;-79
2024/03/15 20:45:51;;;;;;;7.38;6.22;;;;;;;12.02;100.00;101507.19;10445489;28;20137;-78
2024/03/15 20:51:14;;;;;;;8.52;7.72;;;;;;;11.88;100.00;101514.81;10420557;28;20389;-77
2024/03/15 20:56:40;;;;;;;9.15;5.43;;;;;;;12.07;100.00;101512.59;10416884;28;20044;-78
2024/03/15 21:02:08;;;;;;;6.88;6.10;;;;;;;12.45;100.00;101510.72;10419320;28;20162;-77
2024/03/15 21:07:31;;;;;;;11.52;10.48;;;;;;;12.48;100.00;101519.63;10420508;28;20114;-78
2024/03/15 21:12:54;;;;;;;6.07;5.30;;;;;;;12.36;100.00;101504.38;10383797;28;20382;-78
2024/03/15 21:18:17;;;;;;;5.40;4.40;;;;;;;12.02;100.00;101506.28;10433157;28;20056;-78
2024/03/15 21:23:39;;;;;;;5.53;4.03;;;;;;;11.98;100.00;101498.31;10447633;28;20448;-77
2024/03/15 21:29:02;;;;;;;6.28;3.80;;;;;;;12.13;100.00;101500.38;10434758;28;20052;-78
2024/03/15 21:34:25;;;;;;;19.45;13.30;;;;;;;12.24;100.00;101504.13;10422239;28;20048;-78
2024/03/15 21:39:48;;;;;;;7.25;5.65;;;;;;;11.98;100.00;101500.06;10426426;28;20091;-78
2024/03/15 21:45:15;;;;;;;7.78;5.00;;;;;;;11.72;100.00;101502.09;10427918;28;20417;-78
2024/03/15 21:50:39;;;;;;;17.67;8.15;;;;;;;11.56;100.00;101507.88;10441103;28;20053;-78
2024/03/15 21:56:05;;;;;;;17.45;14.50;;;;;;;11.57;100.00;101507.91;10440090;28;20140;-78
2024/03/15 22:01:29;;;;;;;5.72;4.05;;;;;;;11.53;100.00;101510.44;10428752;28;20051;-77
2024/03/15 22:06:52;;;;;;;9.27;4.30;;;;;;;11.68;100.00;101509.94;10428337;28;20550;-78
2024/03/15 22:12:15;;;;;;;11.18;7.45;;;;;;;11.82;100.00;101506.75;10428033;28;20052;-78
2024/03/15 22:17:37;;;;;;;8.27;4.55;;;;;;;11.70;100.00;101508.19;10427096;28;20048;-78
2024/03/15 22:23:01;;;;;;;8.25;4.38;;;;;;;11.56;100.00;101508.75;10412808;28;20036;-78
2024/03/15 22:28:24;;;;;;;6.05;3.90;;;;;;;11.77;100.00;101515.44;10426376;28;20468;-77
2024/03/15 22:33:47;;;;;;;5.65;3.35;;;;;;;11.90;100.00;101512.22;10422834;28;20412;-78
2024/03/15 22:39:10;;;;;;;24.45;17.55;;;;;;;11.72;100.00;101515.31;10414180;28;20106;-77
2024/03/15 22:44:33;;;;;;;15.45;11.93;;;;;;;11.58;100.00;101532.59;10436184;28;20059;-78
2024/03/15 22:49:56;;;;;;;6.93;4.47;;;;;;;11.40;100.00;101527.78;10422547;28;20056;-78
2024/03/15 22:55:18;;;;;;;8.27;4.20;;;;;;;11.18;100.00;101530.72;10436888;28;20068;-78
2024/03/15 23:00:45;;;;;;;4.65;4.10;;;;;;;11.07;100.00;101519.91;10412954;28;20477;-78
2024/03/15 23:06:09;;;;;;;5.93;4.07;;;;;;;11.34;100.00;101524.97;10433513;28;20132;-78
2024/03/15 23:11:32;;;;;;;7.35;3.90;;;;;;;11.55;100.00;101514.03;10424809;28;20041;-78
2024/03/15 23:16:55;;;;;;;5.82;4.15;;;;;;;11.41;100.00;101521.63;10421312;28;20132;-78
2024/03/15 23:22:18;;;;;;;6.97;5.53;;;;;;;11.25;100.00;101527.38;10423560;28;20067;-78
2024/03/15 23:27:40;;;;;;;6.05;5.22;;;;;;;11.25;100.00;101524.75;10409423;28;20053;-78
2024/03/15 23:33:06;;;;;;;9.52;7.18;;;;;;;11.17;100.00;101532.47;10423869;28;20045;-78
2024/03/15 23:38:29;;;;;;;10.95;7.93;;;;;;;11.21;100.00;101537.84;10432168;28;20440;-78
2024/03/15 23:43:51;;;;;;;7.90;5.18;;;;;;;11.24;100.00;101538.81;10421930;28;20404;-78
2024/03/15 23:49:14;;;;;;;15.38;7.07;;;;;;;11.14;100.00;101537.69;10419339;28;20045;-78
2024/03/15 23:54:37;;;;;;;40.65;18.92;;;;;;;10.99;100.00;101536.41;10418606;28;20446;-78
